Mount Pleasant, TX

2:28 PM CDT en Mayo 25, 2015 (GMT -0500)
Union Hill Road at CR 4640 | | Change Station
CLOSE
Current Station
Estación meteorológica personal
Location: Mount Pleasant, TX
Altura: 425 ft
Estaciones meteorológicas cercanas

Alt 425 ft 33.09 °N, 94.90 °W | Updated 15 seconds ago

Muy nublado
Muy nublado
84.1 ° F
Sensación térmica 91 ° F
N
3.0
Viento Variable Viento desde ESE
Gusts 10.0 mph

Hoy
Alta -- | Baja -- ° F
--% Posibilidad de precipitaciones
Ayer
Alta -- | Baja -- ° F
Precip. -- pul
6:14 AM 8:19 PM
Creciente, 51% visible
Presión 29.92 pul
Visibilidad 10.0 Millas
Nubes Nubes dispersas 3100 ft
Nubes dispersas 3800 ft
Índice de calor 91 ° F
Punto de rocío 74 ° F
Humedad 72%
Precipitaciones 0.00 pul
Espesor de la nieve No disponible.
UV 9 de una escala de 12
Polen 4.90 de una escala de 12
Calidad del aire No disponible.
Flu Activity Sporadic
METAR KOSA 251915Z AUTO 14016G19KT 10SM SCT031 SCT038 29/21 A2992 RMK AO1 T02900207

More Conditions Fewer Conditions

Presión 29.92 pul
Visibilidad 10.0 Millas
Nubes Nubes dispersas 3100 ft
Nubes dispersas 3800 ft
Índice de calor 91 ° F
Punto de rocío 74 ° F
Humedad 72%
Precipitaciones 0.00 pul
Espesor de la nieve No disponible.
UV 9 de una escala de 12
Polen 4.90 de una escala de 12
Calidad del aire No disponible.
Flu Activity Sporadic
METAR KOSA 251915Z AUTO 14016G19KT 10SM SCT031 SCT038 29/21 A2992 RMK AO1 T02900207

More Conditions Fewer Conditions

Nowcast | as of 1:48 PM CDT on May 25, 2015

Flash Flood Watch through 7 am Tuesday morning... scattered showers and isolated thunderstorms will develop and move across parts of the region over the next few hours. Expect scattered to numerous thunderstorms to develop by mid to late afternoon and spread from west to east across the arklatex region. Some storms will become severe and produce damaging winds...hail...and even a couple of possible tornadoes. Also very heavy rainfall is likely as well. Area residents should keep an eye to the sky and listen for watches and warnings.

×

10-Day Weather Forecast

Almanac

Astronomía

May. 25, 2015 Salida Puesta
Hora real
Crepúsculo civil
Crepúsculo náutico
Crepúsculo astronómico
Luna
Horas de luz
Horas de luz
Tomorrow will be .
, % of the Moon is Illuminated

Extremos de hoy

Máximos del estado Bajos del estado

Community

WunderPhotos

Upload Photos

1,824,093 ¡fotos cargadas!

WunderBlogs® & News

Nearby

Calidad del aire

  Calidad del aire Índice AQ Contaminante
Not available.

Grosos de nieve

Estación Profundido Altura

Actividad de terremotos

Ciudad Distance Mag. Tiempo y dato
Magnitud mínima muestra es 2,5.

Temperaturas de aguas costeras

Lugar Temperatura

Stations

Estaciones meteorológicas cercanas

Ubicación de la estación Temp. Vientos helados Punto de rocío Humedad Viento Precip. Alt Actualizado Tipo